• Join FlightAware (Why Join?)
  • Login
  • US Flag 
01:11AM EDT


 

Airport Tracker/Info


-or-


 

Live Flight TrackerFlight Track Log ✈ SWA3535 ✈ 25-May-2014 ✈ KLAX - KSMF

Flight Track Log - Related Links

Times and Time Zones

All times are in EDT time to prevent confusion due to time zone crossing. See the SWA3535 flight status page for this flight to view local times or setup timezone preferences in your user account.

Time Position Orientation Groundspeed Altitude Reporting Facility
EDT Latitude Longitude Course Direction KTS MPH feet Rate Location/Type
09:26PM 33.9500 -118.5167 270° West 231 266 3,200  Level Southern California TRACON
09:27PM 33.9353 -118.6114 259° West 244 281 5,700 2,100 Climbing Los Angeles Center
09:28PM 33.9769 -118.6792 307° West 271 312 8,100 1,620 Climbing Los Angeles Center
09:29PM 34.0542 -118.6997 348° North 291 335 9,100 1,500 Climbing Los Angeles Center
09:30PM 34.1189 -118.6511 32° Northeast 281 323 11,200 2,460 Climbing Los Angeles Center
09:31PM 34.1981 -118.6403 North 300 345 14,200 2,640 Climbing Los Angeles Center
09:32PM 34.2811 -118.6617 348° North 304 350 16,700 2,460 Climbing Los Angeles Center
09:33PM 34.3811 -118.6872 348° North 366 421 19,300 2,580 Climbing Los Angeles Center
09:35PM 34.4839 -118.7131 348° North 376 433 22,000 1,800 Climbing Los Angeles Center
09:36PM 34.5886 -118.7525 343° North 397 457 23,000 1,500 Climbing Los Angeles Center
09:37PM 34.6894 -118.8072 336° Northwest 395 455 25,100 2,280 Climbing Los Angeles Center
09:38PM 34.8156 -118.8689 338° Northwest 405 466 27,700 2,040 Climbing Los Angeles Center
09:39PM 34.9169 -118.9119 341° North 420 483 29,300 1,740 Climbing Los Angeles Center
09:40PM 35.0297 -118.9622 340° North 428 493 31,300 1,980 Climbing Los Angeles Center
09:41PM 35.1431 -119.0128 340° North 432 497 33,400 2,040 Climbing Los Angeles Center
09:42PM 35.2767 -119.0731 340° North 431 496 35,600 2,040 Climbing Los Angeles Center
09:43PM 35.3892 -119.1239 340° North 431 496 37,600 1,140 Climbing Los Angeles Center
09:44PM 35.4989 -119.1736 340° North 428 493 38,000 180 Climbing Los Angeles Center
09:45PM 35.6061 -119.2236 339° North 420 483 38,000  Level Los Angeles Center
09:46PM 35.7144 -119.2728 340° North 418 481 38,000  Level Los Angeles Center
09:47PM 35.8231 -119.3222 340° North 417 480 38,000  Level Los Angeles Center
09:47PM 35.8864 -119.3508 340° North 417 480 38,000  Level Oakland Center
09:48PM 35.9900 -119.4194 332° Northwest 420 483 38,000  Level Oakland Center
09:49PM 36.0922 -119.4842 333° Northwest 419 482 38,000  Level Oakland Center
09:50PM 36.1958 -119.5503 333° Northwest 420 483 38,000  Level Oakland Center
09:51PM 36.2997 -119.6167 333° Northwest 420 483 38,000  Level Oakland Center
09:52PM 36.4239 -119.6961 333° Northwest 421 484 38,000  Level Oakland Center
09:53PM 36.5281 -119.7636 332° Northwest 421 484 38,000  Level Oakland Center
09:54PM 36.6325 -119.8308 333° Northwest 422 486 38,000  Level Oakland Center
09:55PM 36.7364 -119.8969 333° Northwest 422 486 38,000  Level Oakland Center
09:57PM 36.8408 -119.9669 332° Northwest 423 487 38,000 -300 Level Oakland Center
09:58PM 36.9444 -120.0367 332° Northwest 423 487 37,400 -1,680 Descending Oakland Center
09:59PM 37.0483 -120.1042 333° Northwest 423 487 34,600 -3,000 Descending Oakland Center
10:00PM 37.1503 -120.1689 333° Northwest 429 494 31,400 -3,180 Descending Oakland Center
10:01PM 37.2592 -120.2417 332° Northwest 441 507 28,200 -3,180 Descending Oakland Center
10:02PM 37.3853 -120.3256 332° Northwest 428 493 25,000 -2,280 Descending Oakland Center
10:02PM 37.4667 -120.3833 331° Northwest 428 493 24,000 -1,020 Descending Northern Cal TRACON
10:03PM 37.5500 -120.4833 316° Northwest 410 472 23,200 -1,440 Descending Northern Cal TRACON
10:04PM 37.6333 -120.5667 322° Northwest 394 453 21,200 -2,100 Descending Northern Cal TRACON
10:05PM 37.7333 -120.6500 327° Northwest 385 443 19,100 -2,100 Descending Northern Cal TRACON
10:06PM 37.8167 -120.7333 322° Northwest 380 437 17,100 -1,560 Descending Northern Cal TRACON
10:07PM 37.9000 -120.8167 322° Northwest 370 426 16,000 -720 Descending Northern Cal TRACON
10:08PM 37.9667 -120.9000 315° West 368 423 15,700 -540 Descending Northern Cal TRACON
10:09PM 38.0333 -121.0000 310° West 366 421 15,000 -780 Descending Northern Cal TRACON
10:10PM 38.1000 -121.0833 315° West 363 418 14,200 -960 Descending Northern Cal TRACON
10:11PM 38.1667 -121.1833 310° West 357 411 13,100 -1,020 Descending Northern Cal TRACON
10:13PM 38.2500 -121.2833 317° Northwest 350 403 12,100 -960 Descending Northern Cal TRACON
10:13PM 38.3000 -121.3667 307° West 350 403 11,200 -1,140 Descending Northern Cal TRACON
10:15PM 38.3667 -121.4500 316° Northwest 294 338 9,900 -1,380 Descending Northern Cal TRACON
10:15PM 38.4167 -121.5167 314° West 286 329 8,500 -1,500 Descending Northern Cal TRACON
10:16PM 38.4667 -121.5667 322° Northwest 287 330 7,100 -1,560 Descending Northern Cal TRACON
10:17PM 38.5333 -121.6333 322° Northwest 283 326 5,400 -1,440 Descending Northern Cal TRACON
10:18PM 38.6000 -121.6667 339° North 262 302 4,300 -1,020 Descending Northern Cal TRACON
10:19PM 38.6667 -121.7000 339° North 248 285 3,400 -1,020 Descending Northern Cal TRACON
10:20PM 38.7333 -121.7000 360° North 230 265 2,300 -780 Descending Northern Cal TRACON
10:21PM 38.7667 -121.6667 38° Northeast 195 224 1,900 -660 Descending Northern Cal TRACON
10:22PM 38.7500 -121.6167 113° Southeast 170 196 1,000 -840 Descending Northern Cal TRACON
10:23PM 38.7167 -121.6000 159° South 120 138 300 -720 Descending Northern Cal TRACON